sensor_id;sensor_type;location;lat;lon;timestamp;P1;durP1;ratioP1;P2;durP2;ratioP2
71975;SDS011;68326;52.124;5.424;2023-09-12T00:00:36;32.87;;;16.80;;
71975;SDS011;68326;52.124;5.424;2023-09-12T00:03:03;29.08;;;15.52;;
71975;SDS011;68326;52.124;5.424;2023-09-12T00:05:30;27.63;;;16.00;;
71975;SDS011;68326;52.124;5.424;2023-09-12T00:07:56;29.02;;;15.98;;
71975;SDS011;68326;52.124;5.424;2023-09-12T00:10:23;28.88;;;15.90;;
71975;SDS011;68326;52.124;5.424;2023-09-12T00:12:49;21.17;;;13.43;;
71975;SDS011;68326;52.124;5.424;2023-09-12T00:15:16;20.30;;;13.30;;
71975;SDS011;68326;52.124;5.424;2023-09-12T00:17:42;50.50;;;12.85;;
71975;SDS011;68326;52.124;5.424;2023-09-12T00:20:09;24.75;;;10.05;;
71975;SDS011;68326;52.124;5.424;2023-09-12T00:22:36;24.50;;;12.63;;
71975;SDS011;68326;52.124;5.424;2023-09-12T00:25:03;23.90;;;13.97;;
71975;SDS011;68326;52.124;5.424;2023-09-12T00:27:29;20.30;;;12.02;;
71975;SDS011;68326;52.124;5.424;2023-09-12T00:29:56;25.27;;;13.32;;
71975;SDS011;68326;52.124;5.424;2023-09-12T00:32:22;21.73;;;13.05;;
71975;SDS011;68326;52.124;5.424;2023-09-12T00:34:49;24.17;;;13.10;;
71975;SDS011;68326;52.124;5.424;2023-09-12T00:37:15;21.77;;;12.93;;
71975;SDS011;68326;52.124;5.424;2023-09-12T00:39:42;68.32;;;14.48;;
71975;SDS011;68326;52.124;5.424;2023-09-12T00:42:08;34.97;;;13.52;;
71975;SDS011;68326;52.124;5.424;2023-09-12T00:44:35;26.58;;;12.93;;
71975;SDS011;68326;52.124;5.424;2023-09-12T00:47:01;15.82;;;11.07;;
71975;SDS011;68326;52.124;5.424;2023-09-12T00:49:29;18.73;;;10.70;;
71975;SDS011;68326;52.124;5.424;2023-09-12T00:51:57;26.13;;;10.55;;
71975;SDS011;68326;52.124;5.424;2023-09-12T00:54:24;46.35;;;9.50;;
71975;SDS011;68326;52.124;5.424;2023-09-12T00:56:51;39.70;;;8.70;;
71975;SDS011;68326;52.124;5.424;2023-09-12T00:59:18;36.65;;;8.40;;
71975;SDS011;68326;52.124;5.424;2023-09-12T01:01:45;34.43;;;7.33;;
71975;SDS011;68326;52.124;5.424;2023-09-12T01:04:12;58.85;;;7.95;;
71975;SDS011;68326;52.124;5.424;2023-09-12T01:06:58;21.08;;;7.68;;
71975;SDS011;68326;52.124;5.424;2023-09-12T01:09:25;13.43;;;7.30;;
71975;SDS011;68326;52.124;5.424;2023-09-12T01:11:52;17.08;;;8.90;;
71975;SDS011;68326;52.124;5.424;2023-09-12T01:14:18;35.00;;;9.37;;
71975;SDS011;68326;52.124;5.424;2023-09-12T01:16:45;35.03;;;8.75;;
71975;SDS011;68326;52.124;5.424;2023-09-12T01:19:11;26.30;;;8.70;;
71975;SDS011;68326;52.124;5.424;2023-09-12T01:29:34;28.15;;;9.02;;
71975;SDS011;68326;52.124;5.424;2023-09-12T01:32:01;45.78;;;9.13;;
71975;SDS011;68326;52.124;5.424;2023-09-12T01:34:29;34.42;;;9.70;;
71975;SDS011;68326;52.124;5.424;2023-09-12T01:36:56;41.47;;;8.70;;
71975;SDS011;68326;52.124;5.424;2023-09-12T01:39:22;29.83;;;9.57;;
71975;SDS011;68326;52.124;5.424;2023-09-12T01:41:49;50.60;;;10.30;;
71975;SDS011;68326;52.124;5.424;2023-09-12T01:44:18;28.20;;;9.20;;
71975;SDS011;68326;52.124;5.424;2023-09-12T01:46:50;39.88;;;9.30;;
71975;SDS011;68326;52.124;5.424;2023-09-12T01:49:19;43.88;;;10.02;;
71975;SDS011;68326;52.124;5.424;2023-09-12T01:51:48;31.27;;;9.87;;
71975;SDS011;68326;52.124;5.424;2023-09-12T01:54:15;17.13;;;9.32;;
71975;SDS011;68326;52.124;5.424;2023-09-12T01:56:43;16.55;;;9.05;;
71975;SDS011;68326;52.124;5.424;2023-09-12T01:59:09;13.30;;;9.02;;
71975;SDS011;68326;52.124;5.424;2023-09-12T02:01:36;17.90;;;9.35;;
71975;SDS011;68326;52.124;5.424;2023-09-12T02:04:03;44.93;;;10.23;;
71975;SDS011;68326;52.124;5.424;2023-09-12T02:06:35;45.92;;;9.93;;
71975;SDS011;68326;52.124;5.424;2023-09-12T02:09:01;24.08;;;9.20;;
71975;SDS011;68326;52.124;5.424;2023-09-12T02:11:28;14.93;;;9.45;;
71975;SDS011;68326;52.124;5.424;2023-09-12T02:13:55;20.60;;;9.43;;
71975;SDS011;68326;52.124;5.424;2023-09-12T02:16:21;27.70;;;9.00;;
71975;SDS011;68326;52.124;5.424;2023-09-12T02:18:48;16.75;;;8.82;;
71975;SDS011;68326;52.124;5.424;2023-09-12T02:21:14;16.88;;;10.23;;
71975;SDS011;68326;52.124;5.424;2023-09-12T02:23:42;19.73;;;10.77;;
71975;SDS011;68326;52.124;5.424;2023-09-12T02:26:08;15.05;;;9.88;;
71975;SDS011;68326;52.124;5.424;2023-09-12T02:28:35;19.47;;;10.13;;
71975;SDS011;68326;52.124;5.424;2023-09-12T02:31:01;41.42;;;11.27;;
71975;SDS011;68326;52.124;5.424;2023-09-12T02:33:28;23.40;;;10.50;;
71975;SDS011;68326;52.124;5.424;2023-09-12T02:35:55;20.60;;;9.68;;
71975;SDS011;68326;52.124;5.424;2023-09-12T02:38:21;21.42;;;9.77;;
71975;SDS011;68326;52.124;5.424;2023-09-12T02:40:48;26.83;;;10.17;;
71975;SDS011;68326;52.124;5.424;2023-09-12T02:43:14;23.98;;;9.73;;
71975;SDS011;68326;52.124;5.424;2023-09-12T02:45:41;26.35;;;10.70;;
71975;SDS011;68326;52.124;5.424;2023-09-12T02:48:07;27.13;;;10.48;;
71975;SDS011;68326;52.124;5.424;2023-09-12T02:50:34;14.88;;;9.27;;
71975;SDS011;68326;52.124;5.424;2023-09-12T02:53:00;22.90;;;9.10;;
71975;SDS011;68326;52.124;5.424;2023-09-12T02:55:27;13.75;;;9.50;;
71975;SDS011;68326;52.124;5.424;2023-09-12T02:57:53;18.85;;;9.57;;
71975;SDS011;68326;52.124;5.424;2023-09-12T03:00:20;18.10;;;9.02;;
71975;SDS011;68326;52.124;5.424;2023-09-12T03:02:46;14.73;;;9.60;;
71975;SDS011;68326;52.124;5.424;2023-09-12T03:05:13;16.03;;;9.27;;
71975;SDS011;68326;52.124;5.424;2023-09-12T03:07:39;13.95;;;8.77;;
71975;SDS011;68326;52.124;5.424;2023-09-12T03:10:06;14.00;;;8.40;;
71975;SDS011;68326;52.124;5.424;2023-09-12T03:12:35;11.77;;;9.00;;
71975;SDS011;68326;52.124;5.424;2023-09-12T03:15:03;12.50;;;9.05;;
71975;SDS011;68326;52.124;5.424;2023-09-12T03:17:30;17.20;;;9.10;;
71975;SDS011;68326;52.124;5.424;2023-09-12T03:19:56;14.75;;;9.00;;
71975;SDS011;68326;52.124;5.424;2023-09-12T03:22:23;19.77;;;9.07;;
71975;SDS011;68326;52.124;5.424;2023-09-12T03:24:50;16.70;;;9.40;;
71975;SDS011;68326;52.124;5.424;2023-09-12T03:27:17;30.58;;;9.05;;
71975;SDS011;68326;52.124;5.424;2023-09-12T03:29:46;11.70;;;8.30;;
71975;SDS011;68326;52.124;5.424;2023-09-12T03:32:13;14.57;;;8.23;;
71975;SDS011;68326;52.124;5.424;2023-09-12T03:34:39;10.68;;;8.45;;
71975;SDS011;68326;52.124;5.424;2023-09-12T03:37:06;11.55;;;9.05;;
71975;SDS011;68326;52.124;5.424;2023-09-12T03:39:34;10.00;;;7.95;;
71975;SDS011;68326;52.124;5.424;2023-09-12T03:42:01;12.53;;;8.97;;
71975;SDS011;68326;52.124;5.424;2023-09-12T03:44:28;13.02;;;9.15;;
71975;SDS011;68326;52.124;5.424;2023-09-12T03:46:54;14.00;;;9.18;;
71975;SDS011;68326;52.124;5.424;2023-09-12T03:49:21;14.88;;;8.90;;
71975;SDS011;68326;52.124;5.424;2023-09-12T03:51:48;11.23;;;8.65;;
71975;SDS011;68326;52.124;5.424;2023-09-12T03:54:15;13.17;;;8.60;;
71975;SDS011;68326;52.124;5.424;2023-09-12T03:56:41;13.23;;;8.38;;
71975;SDS011;68326;52.124;5.424;2023-09-12T03:59:11;15.52;;;8.68;;
71975;SDS011;68326;52.124;5.424;2023-09-12T04:01:38;21.70;;;9.63;;
71975;SDS011;68326;52.124;5.424;2023-09-12T04:04:04;13.82;;;8.85;;
71975;SDS011;68326;52.124;5.424;2023-09-12T04:06:31;11.67;;;8.53;;
71975;SDS011;68326;52.124;5.424;2023-09-12T04:08:58;10.27;;;8.30;;
71975;SDS011;68326;52.124;5.424;2023-09-12T04:11:24;11.10;;;9.05;;
71975;SDS011;68326;52.124;5.424;2023-09-12T04:14:09;13.70;;;8.65;;
71975;SDS011;68326;52.124;5.424;2023-09-12T04:16:36;11.40;;;8.10;;
71975;SDS011;68326;52.124;5.424;2023-09-12T04:19:03;11.30;;;8.13;;
71975;SDS011;68326;52.124;5.424;2023-09-12T04:21:29;12.02;;;8.20;;
71975;SDS011;68326;52.124;5.424;2023-09-12T04:23:56;11.23;;;8.32;;
71975;SDS011;68326;52.124;5.424;2023-09-12T04:26:22;14.57;;;9.10;;
71975;SDS011;68326;52.124;5.424;2023-09-12T04:28:49;12.68;;;9.02;;
71975;SDS011;68326;52.124;5.424;2023-09-12T04:31:16;14.43;;;9.10;;
71975;SDS011;68326;52.124;5.424;2023-09-12T04:33:43;13.57;;;8.55;;
71975;SDS011;68326;52.124;5.424;2023-09-12T04:36:09;13.05;;;9.15;;
71975;SDS011;68326;52.124;5.424;2023-09-12T04:38:36;22.10;;;8.60;;
71975;SDS011;68326;52.124;5.424;2023-09-12T04:41:03;24.02;;;8.68;;
71975;SDS011;68326;52.124;5.424;2023-09-12T04:43:32;13.20;;;8.27;;
71975;SDS011;68326;52.124;5.424;2023-09-12T04:45:58;11.57;;;8.75;;
71975;SDS011;68326;52.124;5.424;2023-09-12T04:48:26;12.20;;;8.50;;
71975;SDS011;68326;52.124;5.424;2023-09-12T04:50:53;17.13;;;8.02;;
71975;SDS011;68326;52.124;5.424;2023-09-12T04:53:19;17.05;;;10.13;;
71975;SDS011;68326;52.124;5.424;2023-09-12T04:55:45;17.20;;;9.00;;
71975;SDS011;68326;52.124;5.424;2023-09-12T04:58:12;25.75;;;9.38;;
71975;SDS011;68326;52.124;5.424;2023-09-12T05:00:39;18.30;;;9.57;;
71975;SDS011;68326;52.124;5.424;2023-09-12T05:03:06;15.00;;;9.20;;
71975;SDS011;68326;52.124;5.424;2023-09-12T05:05:34;18.15;;;10.10;;
71975;SDS011;68326;52.124;5.424;2023-09-12T05:08:02;17.63;;;9.97;;
71975;SDS011;68326;52.124;5.424;2023-09-12T05:10:30;21.60;;;10.27;;
71975;SDS011;68326;52.124;5.424;2023-09-12T05:12:56;26.95;;;10.27;;
71975;SDS011;68326;52.124;5.424;2023-09-12T05:15:23;17.05;;;9.63;;
71975;SDS011;68326;52.124;5.424;2023-09-12T05:17:50;22.30;;;10.98;;
71975;SDS011;68326;52.124;5.424;2023-09-12T05:20:16;18.00;;;10.00;;
71975;SDS011;68326;52.124;5.424;2023-09-12T05:22:43;19.88;;;10.43;;
71975;SDS011;68326;52.124;5.424;2023-09-12T05:25:09;24.58;;;11.85;;
71975;SDS011;68326;52.124;5.424;2023-09-12T05:27:36;16.10;;;10.55;;
71975;SDS011;68326;52.124;5.424;2023-09-12T05:30:02;17.02;;;10.90;;
71975;SDS011;68326;52.124;5.424;2023-09-12T05:32:29;18.43;;;10.80;;
71975;SDS011;68326;52.124;5.424;2023-09-12T05:34:57;14.10;;;9.85;;
71975;SDS011;68326;52.124;5.424;2023-09-12T05:37:43;30.17;;;11.55;;
71975;SDS011;68326;52.124;5.424;2023-09-12T05:40:10;20.67;;;11.15;;
71975;SDS011;68326;52.124;5.424;2023-09-12T05:42:36;17.65;;;10.27;;
71975;SDS011;68326;52.124;5.424;2023-09-12T05:45:03;17.07;;;10.73;;
71975;SDS011;68326;52.124;5.424;2023-09-12T05:47:30;17.45;;;10.20;;
71975;SDS011;68326;52.124;5.424;2023-09-12T05:49:57;18.42;;;10.55;;
71975;SDS011;68326;52.124;5.424;2023-09-12T05:52:25;16.92;;;9.98;;
71975;SDS011;68326;52.124;5.424;2023-09-12T05:54:52;16.98;;;9.73;;
71975;SDS011;68326;52.124;5.424;2023-09-12T05:57:18;15.20;;;9.67;;
71975;SDS011;68326;52.124;5.424;2023-09-12T05:59:45;13.77;;;9.02;;
71975;SDS011;68326;52.124;5.424;2023-09-12T06:02:11;15.40;;;9.50;;
71975;SDS011;68326;52.124;5.424;2023-09-12T06:04:38;14.85;;;9.70;;
71975;SDS011;68326;52.124;5.424;2023-09-12T06:07:04;16.17;;;10.70;;
71975;SDS011;68326;52.124;5.424;2023-09-12T06:09:31;25.63;;;11.80;;
71975;SDS011;68326;52.124;5.424;2023-09-12T06:11:58;27.83;;;11.70;;
71975;SDS011;68326;52.124;5.424;2023-09-12T06:14:24;28.88;;;11.52;;
71975;SDS011;68326;52.124;5.424;2023-09-12T06:16:51;31.48;;;13.38;;
71975;SDS011;68326;52.124;5.424;2023-09-12T06:19:17;29.60;;;13.07;;
71975;SDS011;68326;52.124;5.424;2023-09-12T06:21:46;23.73;;;13.37;;
71975;SDS011;68326;52.124;5.424;2023-09-12T06:24:13;29.80;;;12.68;;
71975;SDS011;68326;52.124;5.424;2023-09-12T06:26:42;43.38;;;13.32;;
71975;SDS011;68326;52.124;5.424;2023-09-12T06:29:09;35.72;;;14.25;;
71975;SDS011;68326;52.124;5.424;2023-09-12T06:31:35;26.58;;;14.15;;
71975;SDS011;68326;52.124;5.424;2023-09-12T06:34:02;25.63;;;15.03;;
71975;SDS011;68326;52.124;5.424;2023-09-12T06:36:29;24.00;;;13.73;;
71975;SDS011;68326;52.124;5.424;2023-09-12T06:38:56;25.90;;;14.07;;
71975;SDS011;68326;52.124;5.424;2023-09-12T06:41:23;24.27;;;13.75;;
71975;SDS011;68326;52.124;5.424;2023-09-12T06:43:50;24.58;;;13.95;;
71975;SDS011;68326;52.124;5.424;2023-09-12T06:46:17;27.53;;;14.27;;
71975;SDS011;68326;52.124;5.424;2023-09-12T06:48:44;26.67;;;14.70;;
71975;SDS011;68326;52.124;5.424;2023-09-12T06:51:12;26.88;;;13.95;;
71975;SDS011;68326;52.124;5.424;2023-09-12T06:53:42;26.70;;;13.93;;
71975;SDS011;68326;52.124;5.424;2023-09-12T06:56:10;25.10;;;13.75;;
71975;SDS011;68326;52.124;5.424;2023-09-12T06:58:36;24.43;;;13.23;;
71975;SDS011;68326;52.124;5.424;2023-09-12T07:01:06;27.83;;;14.20;;
71975;SDS011;68326;52.124;5.424;2023-09-12T07:03:34;13.90;;;7.95;;
71975;SDS011;68326;52.124;5.424;2023-09-12T07:06:01;22.55;;;11.48;;
71975;SDS011;68326;52.124;5.424;2023-09-12T07:08:30;20.67;;;11.27;;
71975;SDS011;68326;52.124;5.424;2023-09-12T07:10:56;26.70;;;13.37;;
71975;SDS011;68326;52.124;5.424;2023-09-12T07:13:23;23.63;;;12.32;;
71975;SDS011;68326;52.124;5.424;2023-09-12T07:15:50;25.92;;;14.77;;
71975;SDS011;68326;52.124;5.424;2023-09-12T07:18:17;27.92;;;14.98;;
71975;SDS011;68326;52.124;5.424;2023-09-12T07:20:45;23.92;;;12.80;;
71975;SDS011;68326;52.124;5.424;2023-09-12T07:23:12;22.37;;;12.83;;
71975;SDS011;68326;52.124;5.424;2023-09-12T07:25:39;30.98;;;15.80;;
71975;SDS011;68326;52.124;5.424;2023-09-12T07:28:07;28.55;;;13.90;;
71975;SDS011;68326;52.124;5.424;2023-09-12T07:30:34;35.03;;;16.17;;
71975;SDS011;68326;52.124;5.424;2023-09-12T07:33:02;32.35;;;17.63;;
71975;SDS011;68326;52.124;5.424;2023-09-12T07:35:30;30.90;;;15.80;;
71975;SDS011;68326;52.124;5.424;2023-09-12T07:37:57;36.20;;;18.42;;
71975;SDS011;68326;52.124;5.424;2023-09-12T07:40:23;32.50;;;16.52;;
71975;SDS011;68326;52.124;5.424;2023-09-12T07:42:50;36.40;;;17.88;;
71975;SDS011;68326;52.124;5.424;2023-09-12T07:45:17;39.90;;;18.60;;
71975;SDS011;68326;52.124;5.424;2023-09-12T07:47:43;37.97;;;18.47;;
71975;SDS011;68326;52.124;5.424;2023-09-12T07:50:10;36.85;;;18.55;;
71975;SDS011;68326;52.124;5.424;2023-09-12T07:52:36;35.80;;;17.05;;
71975;SDS011;68326;52.124;5.424;2023-09-12T07:55:03;41.85;;;19.80;;
71975;SDS011;68326;52.124;5.424;2023-09-12T07:57:30;37.17;;;17.67;;
71975;SDS011;68326;52.124;5.424;2023-09-12T07:59:56;35.80;;;17.37;;
71975;SDS011;68326;52.124;5.424;2023-09-12T08:02:23;38.13;;;16.95;;
71975;SDS011;68326;52.124;5.424;2023-09-12T08:04:50;32.88;;;16.63;;
71975;SDS011;68326;52.124;5.424;2023-09-12T08:07:17;35.22;;;16.17;;
71975;SDS011;68326;52.124;5.424;2023-09-12T08:09:47;31.90;;;16.13;;
71975;SDS011;68326;52.124;5.424;2023-09-12T08:12:19;30.87;;;15.53;;
71975;SDS011;68326;52.124;5.424;2023-09-12T08:14:47;32.05;;;16.00;;
71975;SDS011;68326;52.124;5.424;2023-09-12T08:17:14;34.03;;;15.80;;
71975;SDS011;68326;52.124;5.424;2023-09-12T08:19:41;32.38;;;15.77;;
71975;SDS011;68326;52.124;5.424;2023-09-12T08:22:08;34.20;;;16.60;;
71975;SDS011;68326;52.124;5.424;2023-09-12T08:24:36;31.07;;;15.90;;
71975;SDS011;68326;52.124;5.424;2023-09-12T08:27:03;32.75;;;14.90;;
71975;SDS011;68326;52.124;5.424;2023-09-12T08:29:31;31.60;;;15.88;;
71975;SDS011;68326;52.124;5.424;2023-09-12T08:31:59;26.83;;;14.48;;
71975;SDS011;68326;52.124;5.424;2023-09-12T08:34:27;34.40;;;16.05;;
71975;SDS011;68326;52.124;5.424;2023-09-12T08:36:53;31.97;;;14.27;;
71975;SDS011;68326;52.124;5.424;2023-09-12T08:39:24;30.85;;;16.10;;
71975;SDS011;68326;52.124;5.424;2023-09-12T08:41:52;30.50;;;16.73;;
71975;SDS011;68326;52.124;5.424;2023-09-12T08:44:20;34.20;;;14.63;;
71975;SDS011;68326;52.124;5.424;2023-09-12T08:46:47;31.50;;;15.23;;
71975;SDS011;68326;52.124;5.424;2023-09-12T08:49:17;30.27;;;14.73;;
71975;SDS011;68326;52.124;5.424;2023-09-12T08:51:44;28.50;;;13.50;;
71975;SDS011;68326;52.124;5.424;2023-09-12T08:54:11;26.67;;;13.93;;
71975;SDS011;68326;52.124;5.424;2023-09-12T08:56:39;28.73;;;13.40;;
71975;SDS011;68326;52.124;5.424;2023-09-12T08:59:08;26.55;;;12.48;;
71975;SDS011;68326;52.124;5.424;2023-09-12T09:01:36;27.33;;;12.90;;
71975;SDS011;68326;52.124;5.424;2023-09-12T09:04:04;27.27;;;14.07;;
71975;SDS011;68326;52.124;5.424;2023-09-12T09:06:31;29.35;;;12.57;;
71975;SDS011;68326;52.124;5.424;2023-09-12T09:09:00;26.70;;;12.95;;
71975;SDS011;68326;52.124;5.424;2023-09-12T09:11:28;31.58;;;14.27;;
71975;SDS011;68326;52.124;5.424;2023-09-12T09:13:55;28.10;;;13.23;;
71975;SDS011;68326;52.124;5.424;2023-09-12T09:16:22;25.83;;;12.52;;
71975;SDS011;68326;52.124;5.424;2023-09-12T09:18:50;25.85;;;12.38;;
71975;SDS011;68326;52.124;5.424;2023-09-12T09:21:30;26.42;;;14.32;;
71975;SDS011;68326;52.124;5.424;2023-09-12T09:24:02;29.55;;;15.02;;
71975;SDS011;68326;52.124;5.424;2023-09-12T09:29:15;26.73;;;14.63;;
71975;SDS011;68326;52.124;5.424;2023-09-12T09:31:44;24.90;;;13.73;;
71975;SDS011;68326;52.124;5.424;2023-09-12T09:34:15;26.33;;;15.05;;
71975;SDS011;68326;52.124;5.424;2023-09-12T09:36:44;32.80;;;15.27;;
71975;SDS011;68326;52.124;5.424;2023-09-12T09:39:13;30.80;;;16.20;;
71975;SDS011;68326;52.124;5.424;2023-09-12T09:41:39;27.58;;;14.95;;
71975;SDS011;68326;52.124;5.424;2023-09-12T09:44:07;32.00;;;17.40;;
71975;SDS011;68326;52.124;5.424;2023-09-12T09:46:34;32.88;;;18.05;;
71975;SDS011;68326;52.124;5.424;2023-09-12T09:49:03;29.67;;;16.58;;
71975;SDS011;68326;52.124;5.424;2023-09-12T09:51:30;37.07;;;16.60;;
71975;SDS011;68326;52.124;5.424;2023-09-12T09:53:58;30.17;;;16.15;;
71975;SDS011;68326;52.124;5.424;2023-09-12T09:56:27;29.58;;;15.90;;
71975;SDS011;68326;52.124;5.424;2023-09-12T09:58:54;29.63;;;15.82;;
71975;SDS011;68326;52.124;5.424;2023-09-12T10:01:28;30.00;;;16.23;;
71975;SDS011;68326;52.124;5.424;2023-09-12T10:03:58;29.63;;;15.97;;
71975;SDS011;68326;52.124;5.424;2023-09-12T10:06:27;29.40;;;15.95;;
71975;SDS011;68326;52.124;5.424;2023-09-12T10:08:54;33.20;;;16.80;;
71975;SDS011;68326;52.124;5.424;2023-09-12T10:11:22;30.05;;;16.08;;
71975;SDS011;68326;52.124;5.424;2023-09-12T10:13:52;31.38;;;16.63;;
71975;SDS011;68326;52.124;5.424;2023-09-12T10:16:23;27.33;;;15.23;;
71975;SDS011;68326;52.124;5.424;2023-09-12T10:21:47;27.58;;;15.23;;
71975;SDS011;68326;52.124;5.424;2023-09-12T10:24:16;27.67;;;15.13;;
71975;SDS011;68326;52.124;5.424;2023-09-12T10:26:43;27.60;;;15.43;;
71975;SDS011;68326;52.124;5.424;2023-09-12T10:29:14;32.77;;;16.43;;
71975;SDS011;68326;52.124;5.424;2023-09-12T10:31:44;32.40;;;16.30;;
71975;SDS011;68326;52.124;5.424;2023-09-12T10:34:12;29.33;;;15.73;;
71975;SDS011;68326;52.124;5.424;2023-09-12T10:36:43;26.30;;;15.52;;
71975;SDS011;68326;52.124;5.424;2023-09-12T10:39:12;24.58;;;14.50;;
71975;SDS011;68326;52.124;5.424;2023-09-12T10:41:41;27.00;;;14.87;;
71975;SDS011;68326;52.124;5.424;2023-09-12T10:44:12;28.10;;;15.35;;
71975;SDS011;68326;52.124;5.424;2023-09-12T10:46:45;25.55;;;15.07;;
71975;SDS011;68326;52.124;5.424;2023-09-12T10:49:13;25.52;;;14.35;;
71975;SDS011;68326;52.124;5.424;2023-09-12T10:51:44;28.67;;;16.00;;
71975;SDS011;68326;52.124;5.424;2023-09-12T10:54:15;24.33;;;13.53;;
71975;SDS011;68326;52.124;5.424;2023-09-12T10:57:06;26.38;;;13.10;;
71975;SDS011;68326;52.124;5.424;2023-09-12T10:59:34;26.23;;;14.05;;
71975;SDS011;68326;52.124;5.424;2023-09-12T11:04:59;22.25;;;12.85;;
71975;SDS011;68326;52.124;5.424;2023-09-12T11:07:30;21.47;;;12.03;;
71975;SDS011;68326;52.124;5.424;2023-09-12T11:12:45;24.92;;;13.55;;
71975;SDS011;68326;52.124;5.424;2023-09-12T11:15:13;28.90;;;13.63;;
71975;SDS011;68326;52.124;5.424;2023-09-12T11:17:44;23.52;;;12.95;;
71975;SDS011;68326;52.124;5.424;2023-09-12T11:20:13;22.80;;;13.00;;
71975;SDS011;68326;52.124;5.424;2023-09-12T11:22:43;21.65;;;11.35;;
71975;SDS011;68326;52.124;5.424;2023-09-12T11:30:16;19.70;;;11.68;;
71975;SDS011;68326;52.124;5.424;2023-09-12T11:32:50;21.80;;;13.20;;
71975;SDS011;68326;52.124;5.424;2023-09-12T11:35:25;23.40;;;11.57;;
71975;SDS011;68326;52.124;5.424;2023-09-12T11:37:57;21.92;;;12.55;;
71975;SDS011;68326;52.124;5.424;2023-09-12T11:40:26;17.55;;;11.07;;
71975;SDS011;68326;52.124;5.424;2023-09-12T11:43:09;18.52;;;10.98;;
71975;SDS011;68326;52.124;5.424;2023-09-12T11:45:46;18.93;;;11.00;;
71975;SDS011;68326;52.124;5.424;2023-09-12T11:48:13;17.55;;;9.18;;
71975;SDS011;68326;52.124;5.424;2023-09-12T11:50:40;14.00;;;8.93;;
71975;SDS011;68326;52.124;5.424;2023-09-12T11:53:08;14.55;;;9.32;;
71975;SDS011;68326;52.124;5.424;2023-09-12T11:55:37;21.25;;;10.20;;
71975;SDS011;68326;52.124;5.424;2023-09-12T11:58:10;18.63;;;11.03;;
71975;SDS011;68326;52.124;5.424;2023-09-12T12:00:37;20.10;;;11.32;;
71975;SDS011;68326;52.124;5.424;2023-09-12T12:03:13;18.77;;;10.13;;
71975;SDS011;68326;52.124;5.424;2023-09-12T12:05:40;19.63;;;11.70;;
71975;SDS011;68326;52.124;5.424;2023-09-12T12:08:08;19.38;;;10.07;;
71975;SDS011;68326;52.124;5.424;2023-09-12T12:10:56;20.67;;;11.13;;
71975;SDS011;68326;52.124;5.424;2023-09-12T12:13:26;15.55;;;9.77;;
71975;SDS011;68326;52.124;5.424;2023-09-12T12:15:55;17.45;;;9.60;;
71975;SDS011;68326;52.124;5.424;2023-09-12T12:18:22;16.13;;;9.55;;
71975;SDS011;68326;52.124;5.424;2023-09-12T12:20:49;16.63;;;9.48;;
71975;SDS011;68326;52.124;5.424;2023-09-12T12:23:16;16.30;;;9.70;;
71975;SDS011;68326;52.124;5.424;2023-09-12T12:25:42;15.85;;;10.10;;
71975;SDS011;68326;52.124;5.424;2023-09-12T12:28:09;18.02;;;10.10;;
71975;SDS011;68326;52.124;5.424;2023-09-12T12:30:35;18.50;;;9.85;;
71975;SDS011;68326;52.124;5.424;2023-09-12T12:33:07;14.88;;;8.65;;
71975;SDS011;68326;52.124;5.424;2023-09-12T12:36:03;14.07;;;9.80;;
71975;SDS011;68326;52.124;5.424;2023-09-12T12:38:35;11.65;;;8.50;;
71975;SDS011;68326;52.124;5.424;2023-09-12T12:41:23;10.85;;;7.97;;
71975;SDS011;68326;52.124;5.424;2023-09-12T12:43:58;11.60;;;7.15;;
71975;SDS011;68326;52.124;5.424;2023-09-12T12:46:29;13.13;;;7.03;;
71975;SDS011;68326;52.124;5.424;2023-09-12T12:48:55;8.87;;;6.00;;
71975;SDS011;68326;52.124;5.424;2023-09-12T12:51:23;12.07;;;6.30;;
71975;SDS011;68326;52.124;5.424;2023-09-12T12:53:54;11.07;;;6.68;;
71975;SDS011;68326;52.124;5.424;2023-09-12T12:56:29;10.80;;;6.10;;
71975;SDS011;68326;52.124;5.424;2023-09-12T12:58:58;9.25;;;5.43;;
71975;SDS011;68326;52.124;5.424;2023-09-12T13:01:29;9.50;;;5.60;;
71975;SDS011;68326;52.124;5.424;2023-09-12T13:03:55;7.28;;;4.25;;
71975;SDS011;68326;52.124;5.424;2023-09-12T13:06:25;4.25;;;2.60;;
71975;SDS011;68326;52.124;5.424;2023-09-12T13:08:53;5.63;;;3.00;;
71975;SDS011;68326;52.124;5.424;2023-09-12T13:11:20;5.22;;;3.75;;
71975;SDS011;68326;52.124;5.424;2023-09-12T13:13:47;5.60;;;3.50;;
71975;SDS011;68326;52.124;5.424;2023-09-12T13:16:15;6.40;;;4.10;;
71975;SDS011;68326;52.124;5.424;2023-09-12T13:18:43;5.20;;;3.72;;
71975;SDS011;68326;52.124;5.424;2023-09-12T13:21:09;6.32;;;4.10;;
71975;SDS011;68326;52.124;5.424;2023-09-12T13:23:37;7.45;;;4.40;;
71975;SDS011;68326;52.124;5.424;2023-09-12T13:26:06;8.70;;;4.77;;
71975;SDS011;68326;52.124;5.424;2023-09-12T13:28:34;8.15;;;4.90;;
71975;SDS011;68326;52.124;5.424;2023-09-12T13:31:00;8.23;;;5.57;;
71975;SDS011;68326;52.124;5.424;2023-09-12T13:33:27;7.60;;;4.88;;
71975;SDS011;68326;52.124;5.424;2023-09-12T13:35:54;8.48;;;5.45;;
71975;SDS011;68326;52.124;5.424;2023-09-12T13:38:21;5.63;;;4.73;;
71975;SDS011;68326;52.124;5.424;2023-09-12T13:40:49;6.53;;;4.78;;
71975;SDS011;68326;52.124;5.424;2023-09-12T13:43:15;9.88;;;6.00;;
71975;SDS011;68326;52.124;5.424;2023-09-12T13:45:42;9.77;;;5.90;;
71975;SDS011;68326;52.124;5.424;2023-09-12T13:48:09;8.07;;;4.70;;
71975;SDS011;68326;52.124;5.424;2023-09-12T13:50:35;7.83;;;4.50;;
71975;SDS011;68326;52.124;5.424;2023-09-12T13:53:02;6.50;;;3.28;;
71975;SDS011;68326;52.124;5.424;2023-09-12T13:55:30;6.65;;;3.55;;
71975;SDS011;68326;52.124;5.424;2023-09-12T13:58:13;5.57;;;3.08;;
71975;SDS011;68326;52.124;5.424;2023-09-12T14:00:39;4.72;;;2.97;;
71975;SDS011;68326;52.124;5.424;2023-09-12T14:03:06;4.83;;;3.33;;
71975;SDS011;68326;52.124;5.424;2023-09-12T14:05:33;7.15;;;5.05;;
71975;SDS011;68326;52.124;5.424;2023-09-12T14:08:00;8.88;;;5.15;;
71975;SDS011;68326;52.124;5.424;2023-09-12T14:10:27;7.75;;;4.63;;
71975;SDS011;68326;52.124;5.424;2023-09-12T14:13:02;6.50;;;4.18;;
71975;SDS011;68326;52.124;5.424;2023-09-12T14:15:47;5.47;;;3.40;;
71975;SDS011;68326;52.124;5.424;2023-09-12T14:18:16;8.90;;;4.85;;
71975;SDS011;68326;52.124;5.424;2023-09-12T14:20:44;7.47;;;4.95;;
71975;SDS011;68326;52.124;5.424;2023-09-12T14:23:13;8.68;;;5.07;;
71975;SDS011;68326;52.124;5.424;2023-09-12T14:25:41;8.90;;;4.70;;
71975;SDS011;68326;52.124;5.424;2023-09-12T14:28:08;10.07;;;5.40;;
71975;SDS011;68326;52.124;5.424;2023-09-12T14:30:37;10.13;;;4.95;;
71975;SDS011;68326;52.124;5.424;2023-09-12T14:33:04;18.70;;;6.40;;
71975;SDS011;68326;52.124;5.424;2023-09-12T14:35:31;10.07;;;5.85;;
71975;SDS011;68326;52.124;5.424;2023-09-12T14:37:58;10.90;;;6.10;;
71975;SDS011;68326;52.124;5.424;2023-09-12T14:40:25;14.03;;;5.80;;
71975;SDS011;68326;52.124;5.424;2023-09-12T14:42:54;9.80;;;5.28;;
71975;SDS011;68326;52.124;5.424;2023-09-12T14:45:20;10.95;;;6.40;;
71975;SDS011;68326;52.124;5.424;2023-09-12T14:47:48;10.05;;;6.00;;
71975;SDS011;68326;52.124;5.424;2023-09-12T14:50:14;9.00;;;5.22;;
71975;SDS011;68326;52.124;5.424;2023-09-12T14:52:42;9.37;;;5.80;;
71975;SDS011;68326;52.124;5.424;2023-09-12T14:55:09;12.68;;;6.18;;
71975;SDS011;68326;52.124;5.424;2023-09-12T14:57:36;10.55;;;6.57;;